Impacts METAR Board
IDs:

KGRK - Killeen-Ft Hood Rgnl, TX, US

Updated at: 0800 UTC 26 May 2019
Potential Impact None Slight Moderate High
Time 25/20Z 25/21Z 25/22Z 25/23Z 26/00Z 26/01Z 26/02Z 26/03Z 26/04Z 26/05Z 26/06Z 26/07Z 26/08Z
Temp85 88 86 85 84 82 79 78 77 74 73 72 72
Dewpt70 70 68 68 68 67 66 66 65 66 65 67 68
Altim30.00 29.97 29.97 29.96 29.95 29.95 29.95 29.97 30.00 30.00 30.01 30.00 30.01
VIS10 10 10 10 10 10 10 10 10 10 10 10 10
CIG38 -- 65 -- -- -- -- -- -- -- -- -- 16
CoverBKNFEWBKNSCTSCTCLRCLRCLRCLRCLRCLRCLRBKN
FltCatVFRVFRVFRVFRVFRVFRVFRVFRVFRVFRVFRVFRMVFR
WX--------------------------
WDir150130140140140140140140150150150150150
WSpd16 17 13 14 16 13 14 13 12 8 7 11 10
WGst22 -- -- 22 21 -- -- -- -- -- -- -- --
Raw hourly METARs
KGRK 251958Z AUTO 15016G22KT 10SM BKN038 BKN049 30/21 A3000 RMK AO2 SLP149 T02950209
KGRK 252058Z AUTO 13017KT 10SM FEW038 31/21 A2997 RMK AO2 SLP138 T03110212 57022
KGRK 252158Z AUTO 14013KT 10SM SCT042 BKN065 BKN080 30/20 A2997 RMK AO2 SLP138 T03010201
KGRK 252258Z AUTO 14014G22KT 10SM FEW049 SCT060 SCT085 29/20 A2996 RMK AO2 SLP135 T02940200
KGRK 252358Z AUTO 14016G21KT 10SM SCT050 29/20 A2995 RMK AO2 SLP132 T02870200 10312 20280 57006
KGRK 260058Z AUTO 14013KT 10SM CLR 28/20 A2995 RMK AO2 SLP132 T02750196
KGRK 260158Z AUTO 14014KT 10SM CLR 26/19 A2995 RMK AO2 SLP132 T02630191
KGRK 260258Z AUTO 14013KT 10SM CLR 25/19 A2997 RMK AO2 SLP139 T02540189 53006
KGRK 260358Z AUTO 15012KT 10SM CLR 25/18 A3000 RMK AO2 SLP149 T02480184
KGRK 260458Z AUTO 15008KT 10SM CLR 23/19 A3000 RMK AO2 SLP149 T02330187
KGRK 260558Z AUTO 15007KT 10SM CLR 23/19 A3001 RMK AO2 SLP152 T02270185 10289 20227 403120222 51013
KGRK 260658Z AUTO 15011KT 10SM CLR 22/19 A3000 RMK AO2 SLP149 T02220193
KGRK 260758Z AUTO 15010KT 10SM BKN016 BKN024 22/20 A3001 RMK AO2 CIG 016V025 BKN016 V SCT SLP152 T02240199